createdAt,value
2017-07-07T00:00:23.176Z,0
2017-07-07T00:01:22.854Z,0
2017-07-07T00:02:23.133Z,0
2017-07-07T00:03:23.118Z,0
2017-07-07T00:04:23.088Z,0
2017-07-07T00:05:23.118Z,0
2017-07-07T00:06:23.055Z,0
2017-07-07T00:07:23.043Z,0
2017-07-07T00:08:23.030Z,0
2017-07-07T00:09:22.995Z,0
2017-07-07T00:10:22.980Z,0
2017-07-07T00:11:22.945Z,0
2017-07-07T00:12:22.938Z,0
2017-07-07T00:13:22.925Z,0
2017-07-07T00:14:22.908Z,0
2017-07-07T00:15:22.937Z,0
2017-07-07T00:16:22.879Z,0
2017-07-07T00:17:22.835Z,0
2017-07-07T00:18:22.818Z,0
2017-07-07T00:19:22.799Z,0
2017-07-07T00:20:22.838Z,0
2017-07-07T00:21:23.015Z,0
2017-07-07T00:22:22.743Z,0
2017-07-07T00:23:22.777Z,0
2017-07-07T00:24:22.718Z,0
2017-07-07T00:25:22.686Z,0
2017-07-07T00:26:22.677Z,0
2017-07-07T00:27:22.388Z,0
2017-07-07T00:28:22.626Z,0
2017-07-07T00:29:22.298Z,0
2017-07-07T00:30:22.590Z,0
2017-07-07T00:31:22.625Z,0
2017-07-07T00:32:22.551Z,0
2017-07-07T00:33:22.538Z,0
2017-07-07T00:34:22.573Z,0
2017-07-07T00:35:22.489Z,0
2017-07-07T00:36:22.466Z,0
2017-07-07T00:37:22.444Z,0
2017-07-07T00:38:22.432Z,0
2017-07-07T00:39:22.416Z,0
2017-07-07T00:40:22.084Z,0
2017-07-07T00:41:22.376Z,0
2017-07-07T00:42:22.359Z,0
2017-07-07T00:43:22.330Z,0
2017-07-07T00:44:22.317Z,0
2017-07-07T00:45:22.293Z,0
2017-07-07T00:46:22.274Z,0
2017-07-07T00:47:22.256Z,0
2017-07-07T00:48:22.237Z,0
2017-07-07T00:49:22.222Z,0
2017-07-07T00:50:22.197Z,0
2017-07-07T00:51:22.178Z,0
2017-07-07T00:52:22.155Z,0
2017-07-07T00:53:22.137Z,0
2017-07-07T00:54:22.120Z,0
2017-07-07T00:55:22.133Z,0
2017-07-07T00:56:21.766Z,0
2017-07-07T00:57:22.066Z,0
2017-07-07T00:58:21.725Z,0
2017-07-07T00:59:21.716Z,0
2017-07-07T01:00:21.702Z,0
2017-07-07T01:01:21.990Z,0
2017-07-07T01:02:21.996Z,0
2017-07-07T01:03:21.945Z,0
2017-07-07T01:04:21.989Z,0
2017-07-07T01:05:21.911Z,0
2017-07-07T01:06:21.898Z,0
2017-07-07T01:07:21.868Z,0
2017-07-07T01:08:21.863Z,0
2017-07-07T01:09:21.827Z,0
2017-07-07T01:10:21.803Z,0
2017-07-07T01:11:21.833Z,0
2017-07-07T01:12:21.781Z,0
2017-07-07T01:13:21.805Z,0
2017-07-07T01:14:21.730Z,0
2017-07-07T01:15:21.760Z,0
2017-07-07T01:16:21.749Z,0
2017-07-07T01:17:21.773Z,0
2017-07-07T01:18:21.653Z,0
2017-07-07T01:19:21.633Z,0
2017-07-07T01:20:21.616Z,0
2017-07-07T01:21:21.285Z,0
2017-07-07T01:22:21.568Z,0
2017-07-07T01:23:21.600Z,0
2017-07-07T01:24:21.525Z,0
2017-07-07T01:25:21.517Z,0
2017-07-07T01:26:21.507Z,0
2017-07-07T01:27:21.476Z,0
2017-07-07T01:28:21.160Z,0
2017-07-07T01:29:21.468Z,0
2017-07-07T01:30:21.423Z,0
2017-07-07T01:31:21.403Z,0
2017-07-07T01:32:21.385Z,0
2017-07-07T01:33:21.694Z,0
2017-07-07T01:34:35.640Z,0
2017-07-07T01:35:21.402Z,0
2017-07-07T01:36:21.306Z,0
2017-07-07T01:37:21.333Z,0
2017-07-07T01:38:21.387Z,0
2017-07-07T01:39:21.252Z,0
2017-07-07T01:40:20.929Z,0
2017-07-07T01:41:21.200Z,0
2017-07-07T01:42:21.179Z,0
2017-07-07T01:43:20.849Z,0
2017-07-07T01:44:21.188Z,0
2017-07-07T01:45:21.170Z,0
2017-07-07T01:46:21.099Z,0
2017-07-07T01:47:20.768Z,0
2017-07-07T01:48:21.056Z,0
2017-07-07T01:49:21.034Z,0
2017-07-07T01:50:20.778Z,0
2017-07-07T01:51:21.037Z,0
2017-07-07T01:52:20.983Z,0
2017-07-07T01:53:40.369Z,0
2017-07-07T01:57:53.634Z,0
2017-07-07T01:58:09.804Z,0
2017-07-07T01:59:09.784Z,0
2017-07-07T02:00:09.827Z,0
2017-07-07T02:01:09.735Z,0
2017-07-07T02:02:09.410Z,0
2017-07-07T02:03:09.699Z,0
2017-07-07T02:04:09.678Z,0
2017-07-07T02:05:09.655Z,0
2017-07-07T02:06:09.648Z,0
2017-07-07T02:07:09.650Z,0
2017-07-07T02:08:09.605Z,0
2017-07-07T02:09:09.801Z,0
2017-07-07T02:10:09.561Z,0
2017-07-07T02:11:09.545Z,0
2017-07-07T02:12:09.456Z,0
2017-07-07T02:13:09.189Z,0
2017-07-07T02:14:09.484Z,0
2017-07-07T02:15:09.458Z,0
2017-07-07T02:16:09.134Z,0
2017-07-07T02:17:09.419Z,0
2017-07-07T02:18:09.403Z,0
2017-07-07T02:19:09.443Z,0
2017-07-07T02:20:09.371Z,0
2017-07-07T02:21:09.342Z,0
2017-07-07T02:22:09.018Z,0
2017-07-07T02:23:09.317Z,0
2017-07-07T02:24:09.283Z,0
2017-07-07T02:25:09.265Z,0
2017-07-07T02:26:09.244Z,0
2017-07-07T02:27:09.229Z,0
2017-07-07T02:28:09.258Z,0
2017-07-07T02:29:09.199Z,0
2017-07-07T02:30:09.163Z,0
2017-07-07T02:31:09.143Z,0
2017-07-07T02:32:09.125Z,0
2017-07-07T02:33:09.108Z,0
2017-07-07T02:34:09.088Z,0
2017-07-07T02:35:08.766Z,0
2017-07-07T02:36:08.737Z,0
2017-07-07T02:37:09.025Z,0
2017-07-07T02:38:09.014Z,0
2017-07-07T02:39:08.989Z,0
2017-07-07T02:40:08.964Z,0
2017-07-07T02:41:08.943Z,0
2017-07-07T02:42:08.938Z,0
2017-07-07T02:43:08.912Z,0
2017-07-07T02:44:08.590Z,0
2017-07-07T02:45:08.894Z,0
2017-07-07T02:46:08.855Z,0
2017-07-07T02:47:08.833Z,0
2017-07-07T02:48:08.822Z,4
2017-07-07T02:49:08.801Z,4
2017-07-07T02:50:08.773Z,4
2017-07-07T02:51:08.752Z,4
2017-07-07T02:52:08.747Z,4
2017-07-07T02:53:08.733Z,8
2017-07-07T02:54:08.697Z,4
2017-07-07T02:55:08.688Z,4
2017-07-07T02:56:08.405Z,8
2017-07-07T02:57:08.350Z,8
2017-07-07T02:58:08.620Z,8
2017-07-07T02:59:08.605Z,8
2017-07-07T03:00:08.583Z,12
2017-07-07T03:01:08.552Z,12
2017-07-07T03:02:08.853Z,12
2017-07-07T03:03:08.526Z,12
2017-07-07T03:04:08.503Z,12
2017-07-07T03:05:08.486Z,16
2017-07-07T03:06:08.464Z,20
2017-07-07T03:07:08.142Z,24
2017-07-07T03:08:08.437Z,24
2017-07-07T03:09:08.101Z,24
2017-07-07T03:10:08.397Z,28
2017-07-07T03:11:08.381Z,36
2017-07-07T03:12:08.356Z,36
2017-07-07T03:13:08.329Z,44
2017-07-07T03:14:08.328Z,44
2017-07-07T03:15:08.282Z,48
2017-07-07T03:16:08.284Z,48
2017-07-07T03:17:08.247Z,56
2017-07-07T03:18:08.241Z,64
2017-07-07T03:19:08.216Z,68
2017-07-07T03:20:07.905Z,76
2017-07-07T03:21:08.179Z,84
2017-07-07T03:22:08.147Z,88
2017-07-07T03:23:08.133Z,88
2017-07-07T03:24:08.096Z,84
2017-07-07T03:25:08.090Z,84
2017-07-07T03:26:08.077Z,84
2017-07-07T03:27:08.053Z,88
2017-07-07T03:28:08.051Z,88
2017-07-07T03:29:08.013Z,88
2017-07-07T03:30:08.012Z,96
2017-07-07T03:31:07.988Z,100
2017-07-07T03:32:07.962Z,100
2017-07-07T03:33:07.628Z,96
2017-07-07T03:34:07.308Z,96
2017-07-07T03:35:07.893Z,92
2017-07-07T03:36:07.889Z,92
2017-07-07T03:37:07.870Z,88
2017-07-07T03:38:07.836Z,84
2017-07-07T03:39:07.807Z,84
2017-07-07T03:40:07.476Z,72
2017-07-07T03:41:07.778Z,72
2017-07-07T03:42:07.810Z,64
2017-07-07T03:43:07.734Z,60
2017-07-07T03:44:07.728Z,56
2017-07-07T03:45:07.959Z,56
2017-07-07T03:46:07.690Z,52
2017-07-07T03:47:07.658Z,52
2017-07-07T03:48:07.647Z,52
2017-07-07T03:49:07.618Z,52
2017-07-07T03:50:07.609Z,56
2017-07-07T03:51:07.570Z,56
2017-07-07T03:52:07.267Z,64
2017-07-07T03:53:07.551Z,68
2017-07-07T03:54:07.523Z,76
2017-07-07T03:55:07.510Z,104
2017-07-07T03:56:07.187Z,160
2017-07-07T03:57:07.465Z,216
2017-07-07T03:58:07.458Z,252
2017-07-07T03:59:07.424Z,284
2017-07-07T04:00:07.413Z,320
2017-07-07T04:01:07.095Z,360
2017-07-07T04:02:07.377Z,416
2017-07-07T04:03:07.343Z,472
2017-07-07T04:04:07.326Z,524
2017-07-07T04:05:07.304Z,584
2017-07-07T04:06:07.302Z,636
2017-07-07T04:07:07.344Z,684
2017-07-07T04:08:07.253Z,704
2017-07-07T04:09:06.639Z,740
2017-07-07T04:10:07.211Z,776
2017-07-07T04:11:06.903Z,820
2017-07-07T04:12:06.892Z,852
2017-07-07T04:13:07.154Z,888
2017-07-07T04:14:07.132Z,916
2017-07-07T04:15:07.097Z,944
2017-07-07T04:16:07.086Z,972
2017-07-07T04:17:07.061Z,1008
2017-07-07T04:18:06.742Z,1052
2017-07-07T04:19:07.021Z,1108
2017-07-07T04:20:06.974Z,1224
2017-07-07T04:21:07.012Z,1348
2017-07-07T04:22:06.990Z,1544
2017-07-07T04:23:06.945Z,1716
2017-07-07T04:24:06.919Z,1872
2017-07-07T04:25:06.604Z,2040
2017-07-07T04:26:06.897Z,2248
2017-07-07T04:27:06.877Z,2540
2017-07-07T04:28:06.861Z,2860
2017-07-07T04:29:06.833Z,3156
2017-07-07T04:30:06.811Z,3480
2017-07-07T04:31:06.550Z,3740
2017-07-07T04:32:06.786Z,3944
2017-07-07T04:33:06.754Z,4124
2017-07-07T04:34:06.747Z,4260
2017-07-07T04:35:06.407Z,4408
2017-07-07T04:36:06.687Z,4528
2017-07-07T04:37:06.663Z,4600
2017-07-07T04:38:06.650Z,4580
2017-07-07T04:39:06.639Z,4524
2017-07-07T04:40:06.663Z,4440
2017-07-07T04:41:06.588Z,4540
2017-07-07T04:42:06.574Z,5064
2017-07-07T04:43:06.241Z,7592
2017-07-07T04:44:06.621Z,9816
2017-07-07T04:45:06.564Z,11460
2017-07-07T04:46:06.491Z,5744
2017-07-07T04:47:06.468Z,5472
2017-07-07T04:48:06.470Z,10112
2017-07-07T04:49:06.443Z,11328
2017-07-07T04:50:06.113Z,14176
2017-07-07T04:51:06.395Z,10652
2017-07-07T04:52:06.387Z,11592
2017-07-07T04:53:06.064Z,13620
2017-07-07T04:54:06.337Z,14624
2017-07-07T04:55:06.325Z,15104
2017-07-07T04:56:06.308Z,14752
2017-07-07T04:57:06.292Z,12248
2017-07-07T04:58:06.274Z,10136
2017-07-07T04:59:06.308Z,13176
2017-07-07T05:00:06.238Z,12672
2017-07-07T05:01:06.210Z,11632
2017-07-07T05:02:06.199Z,8376
2017-07-07T05:03:06.188Z,6520
2017-07-07T05:04:06.163Z,9480
2017-07-07T05:05:06.148Z,11304
2017-07-07T05:06:06.149Z,11936
2017-07-07T05:07:05.806Z,11292
2017-07-07T05:08:06.098Z,8128
2017-07-07T05:09:06.093Z,8756
2017-07-07T05:10:06.065Z,9240
2017-07-07T05:11:06.049Z,14232
2017-07-07T05:12:06.033Z,16160
2017-07-07T05:13:06.010Z,17856
2017-07-07T05:14:06.010Z,16448
2017-07-07T05:15:05.675Z,13240
2017-07-07T05:16:05.958Z,13680
2017-07-07T05:17:05.634Z,14656
2017-07-07T05:18:05.934Z,15648
2017-07-07T05:19:05.594Z,9900
2017-07-07T05:20:05.890Z,18048
2017-07-07T05:21:05.876Z,16192
2017-07-07T05:22:05.905Z,10388
2017-07-07T05:23:05.835Z,8156
2017-07-07T05:24:05.819Z,8372
2017-07-07T05:25:05.871Z,9496
2017-07-07T05:26:05.500Z,11884
2017-07-07T05:27:05.468Z,11140
2017-07-07T05:28:05.758Z,13244
2017-07-07T05:29:05.743Z,13084
2017-07-07T05:30:05.720Z,14252
2017-07-07T05:31:05.770Z,13068
2017-07-07T05:32:05.386Z,13724
2017-07-07T05:33:05.724Z,11896
2017-07-07T05:34:05.348Z,11956
2017-07-07T05:35:05.713Z,12680
2017-07-07T05:36:05.628Z,13548
2017-07-07T05:37:05.606Z,11844
2017-07-07T05:38:05.607Z,10992
2017-07-07T05:39:05.582Z,9200
2017-07-07T05:40:05.558Z,8624
2017-07-07T05:41:05.236Z,8476
2017-07-07T05:42:05.576Z,8736
2017-07-07T05:43:05.504Z,10520
2017-07-07T05:44:05.510Z,11596
2017-07-07T05:45:05.479Z,10096
2017-07-07T05:46:05.510Z,10824
2017-07-07T05:47:05.446Z,11504
2017-07-07T05:48:05.113Z,15872
2017-07-07T05:49:05.408Z,17792
2017-07-07T05:50:05.382Z,25216
2017-07-07T05:51:05.617Z,20960
2017-07-07T05:52:05.365Z,14232
2017-07-07T05:53:05.343Z,12724
2017-07-07T05:54:05.323Z,12204
2017-07-07T05:55:05.309Z,12236
2017-07-07T05:56:05.291Z,10460
2017-07-07T05:57:04.969Z,10904
2017-07-07T05:58:05.254Z,10948
2017-07-07T05:59:05.242Z,19808
2017-07-07T06:00:05.215Z,11744
2017-07-07T06:01:05.255Z,11440
2017-07-07T06:02:04.913Z,16544
2017-07-07T06:03:05.179Z,13676
2017-07-07T06:04:05.158Z,16576
2017-07-07T06:05:05.135Z,22688
2017-07-07T06:06:05.126Z,24384
2017-07-07T06:07:05.150Z,24320
2017-07-07T06:08:05.097Z,24960
2017-07-07T06:09:05.129Z,25088
2017-07-07T06:10:05.064Z,24736
2017-07-07T06:11:05.045Z,20224
2017-07-07T06:12:05.036Z,25344
2017-07-07T06:13:05.033Z,25984
2017-07-07T06:14:04.999Z,26048
2017-07-07T06:15:04.700Z,26528
2017-07-07T06:16:04.670Z,26624
2017-07-07T06:17:04.960Z,28000
2017-07-07T06:18:04.942Z,30368
2017-07-07T06:19:04.936Z,29120
2017-07-07T06:20:04.922Z,25248
2017-07-07T06:21:04.902Z,26528
2017-07-07T06:22:04.886Z,20032
2017-07-07T06:23:04.882Z,15656
2017-07-07T06:24:04.923Z,15280
2017-07-07T06:25:04.858Z,14412
2017-07-07T06:26:04.899Z,18624
2017-07-07T06:27:04.839Z,27712
2017-07-07T06:28:04.814Z,25728
2017-07-07T06:29:04.797Z,26336
2017-07-07T06:30:04.779Z,20192
2017-07-07T06:31:04.779Z,29664
2017-07-07T06:32:04.759Z,28928
2017-07-07T06:33:04.996Z,30304
2017-07-07T06:34:04.722Z,31744
2017-07-07T06:35:04.470Z,32480
2017-07-07T06:36:04.718Z,33280
2017-07-07T06:37:04.689Z,34336
2017-07-07T06:38:04.677Z,24896
2017-07-07T06:39:04.679Z,33056
2017-07-07T06:40:04.705Z,31168
2017-07-07T06:41:04.645Z,36384
2017-07-07T06:42:04.321Z,35584
2017-07-07T06:43:04.622Z,34080
2017-07-07T06:44:04.607Z,27040
2017-07-07T06:45:04.609Z,30016
2017-07-07T06:46:04.654Z,35552
2017-07-07T06:47:04.586Z,38112
2017-07-07T06:48:04.568Z,31040
2017-07-07T06:49:04.629Z,38912
2017-07-07T06:50:04.542Z,42240
2017-07-07T06:51:04.573Z,45952
2017-07-07T06:52:04.216Z,45760
2017-07-07T06:53:04.562Z,46560
2017-07-07T06:54:04.502Z,42720
2017-07-07T06:55:04.547Z,20320
2017-07-07T06:56:04.478Z,24064
2017-07-07T06:57:04.489Z,38368
2017-07-07T06:58:04.461Z,34976
2017-07-07T06:59:04.444Z,30304
2017-07-07T07:00:04.439Z,38080
2017-07-07T07:01:04.441Z,22336
2017-07-07T07:02:04.421Z,42048
2017-07-07T07:03:04.433Z,41664
2017-07-07T07:04:04.088Z,39872
2017-07-07T07:05:04.400Z,38208
2017-07-07T07:06:04.446Z,41248
2017-07-07T07:07:04.408Z,41696
2017-07-07T07:08:04.362Z,41856
2017-07-07T07:09:04.345Z,42144
2017-07-07T07:10:04.339Z,42464
2017-07-07T07:11:04.394Z,42464
2017-07-07T07:12:04.377Z,39744
2017-07-07T07:13:04.327Z,38592
2017-07-07T07:14:04.054Z,37632
2017-07-07T07:15:04.003Z,38048
2017-07-07T07:16:04.294Z,37312
2017-07-07T07:17:04.333Z,35936
2017-07-07T07:18:03.964Z,37056
2017-07-07T07:19:04.262Z,38144
2017-07-07T07:20:04.309Z,38272
2017-07-07T07:21:04.238Z,41376
2017-07-07T07:22:04.283Z,41824
2017-07-07T07:23:04.232Z,44128
2017-07-07T07:24:04.215Z,34048
2017-07-07T07:25:04.207Z,38336
2017-07-07T07:26:04.212Z,34592
2017-07-07T07:27:04.191Z,37504
2017-07-07T07:28:04.193Z,33120
2017-07-07T07:29:04.238Z,37216
2017-07-07T07:30:04.170Z,35040
2017-07-07T07:31:03.859Z,32800
2017-07-07T07:32:04.159Z,34656
2017-07-07T07:33:04.207Z,37856
2017-07-07T07:34:04.143Z,43200
2017-07-07T07:35:03.828Z,48000
2017-07-07T07:36:04.123Z,35360
2017-07-07T07:37:04.115Z,22592
2017-07-07T07:38:04.112Z,26592
2017-07-07T07:39:04.112Z,34176
2017-07-07T07:40:03.795Z,35008
2017-07-07T07:41:04.085Z,41184
2017-07-07T07:42:04.080Z,31968
2017-07-07T07:43:04.071Z,47808
2017-07-07T07:44:04.074Z,49472
2017-07-07T07:45:04.073Z,58496
2017-07-07T07:46:04.304Z,59200
2017-07-07T07:47:03.732Z,55584
2017-07-07T07:48:04.027Z,51808
2017-07-07T07:49:04.063Z,39072
2017-07-07T07:50:04.021Z,22528
2017-07-07T07:51:04.027Z,20960
2017-07-07T07:52:03.698Z,20960
2017-07-07T07:53:04.002Z,46400
2017-07-07T07:54:03.996Z,50304
2017-07-07T07:55:04.036Z,52512
2017-07-07T07:56:03.978Z,51904
2017-07-07T07:57:03.767Z,51520
2017-07-07T07:58:03.969Z,48416
2017-07-07T07:59:03.958Z,48064
2017-07-07T08:00:03.944Z,50496
2017-07-07T08:01:03.967Z,50848
2017-07-07T08:02:03.934Z,49984
2017-07-07T08:03:03.617Z,54528
2017-07-07T08:04:03.918Z,50624
2017-07-07T08:05:03.915Z,57376
2017-07-07T08:06:03.602Z,57152
2017-07-07T08:07:03.898Z,53152
2017-07-07T08:08:03.897Z,56896
2017-07-07T08:09:03.897Z,57376
2017-07-07T08:10:03.883Z,56640
2017-07-07T08:11:03.923Z,55200
2017-07-07T08:12:03.870Z,56416
2017-07-07T08:13:03.872Z,58592
2017-07-07T08:14:03.870Z,58048
2017-07-07T08:15:03.853Z,57408
2017-07-07T08:16:03.876Z,57248
2017-07-07T08:17:03.538Z,58528
2017-07-07T08:18:03.844Z,58720
2017-07-07T08:19:03.832Z,59872
2017-07-07T08:20:03.529Z,58624
2017-07-07T08:21:03.899Z,41504
2017-07-07T08:22:03.820Z,23328
2017-07-07T08:23:03.855Z,59072
2017-07-07T08:24:03.807Z,59488
2017-07-07T08:25:03.807Z,57664
2017-07-07T08:26:03.791Z,56512
2017-07-07T08:27:03.790Z,55744
2017-07-07T08:28:03.791Z,57440
2017-07-07T08:29:03.788Z,59552
2017-07-07T08:30:03.789Z,60128
2017-07-07T08:31:03.771Z,59520
2017-07-07T08:32:03.767Z,57472
2017-07-07T08:33:03.771Z,55936
2017-07-07T08:34:03.774Z,52544
2017-07-07T08:35:03.448Z,55136
2017-07-07T08:36:03.756Z,58048
2017-07-07T08:37:03.745Z,57312
2017-07-07T08:38:03.745Z,58496
2017-07-07T08:39:03.738Z,59232
2017-07-07T08:40:03.727Z,59232
2017-07-07T08:41:03.780Z,59520
2017-07-07T08:42:03.733Z,63008
2017-07-07T08:43:03.768Z,66336
2017-07-07T08:44:03.814Z,66176
2017-07-07T08:45:03.708Z,68160
2017-07-07T08:46:03.399Z,68576
2017-07-07T08:47:03.765Z,67776
2017-07-07T08:48:03.714Z,68448
2017-07-07T08:49:03.689Z,67040
2017-07-07T08:50:03.682Z,66336
2017-07-07T08:51:03.692Z,55104
2017-07-07T08:52:03.686Z,62656
2017-07-07T08:53:03.377Z,60928
2017-07-07T08:54:03.373Z,57696
2017-07-07T08:55:03.721Z,57504
2017-07-07T08:56:03.681Z,55712
2017-07-07T08:57:03.375Z,55456
2017-07-07T08:58:03.663Z,52608
2017-07-07T08:59:03.653Z,51968
2017-07-07T09:00:03.662Z,48608
2017-07-07T09:01:03.656Z,54272
2017-07-07T09:02:03.643Z,50048
2017-07-07T09:03:03.327Z,61760
2017-07-07T09:04:03.639Z,60064
2017-07-07T09:05:03.630Z,38368
2017-07-07T09:06:03.622Z,52928
2017-07-07T09:07:03.630Z,64576
2017-07-07T09:08:03.617Z,59328
2017-07-07T09:09:03.619Z,67296
2017-07-07T09:10:03.626Z,68608
2017-07-07T09:11:03.697Z,68992
2017-07-07T09:12:03.591Z,66400
2017-07-07T09:13:03.603Z,55680
2017-07-07T09:14:03.598Z,66304
2017-07-07T09:15:03.281Z,62752
2017-07-07T09:16:03.272Z,58272
2017-07-07T09:17:03.623Z,45536
2017-07-07T09:18:03.619Z,75200
2017-07-07T09:19:03.616Z,51648
2017-07-07T09:20:03.553Z,83136
2017-07-07T09:21:03.560Z,48544
2017-07-07T09:22:03.547Z,50048
2017-07-07T09:23:03.230Z,41760
2017-07-07T09:24:03.545Z,81152
2017-07-07T09:25:03.542Z,64288
2017-07-07T09:26:03.536Z,32288
2017-07-07T09:27:03.579Z,39424
2017-07-07T09:28:03.509Z,32384
2017-07-07T09:29:03.510Z,32640
2017-07-07T09:30:03.505Z,50176
2017-07-07T09:31:03.186Z,54848
2017-07-07T09:32:03.494Z,44672
2017-07-07T09:33:03.485Z,28512
2017-07-07T09:34:03.486Z,65312
2017-07-07T09:35:03.476Z,65984
2017-07-07T09:36:03.461Z,44672
2017-07-07T09:37:03.450Z,51040
2017-07-07T09:38:03.452Z,62016
2017-07-07T09:39:03.439Z,57184
2017-07-07T09:40:03.536Z,59648
2017-07-07T09:41:03.429Z,54912
2017-07-07T09:42:03.416Z,39552
2017-07-07T09:43:03.475Z,43872
2017-07-07T09:44:03.411Z,66784
2017-07-07T09:45:03.458Z,62080
2017-07-07T09:46:03.444Z,59712
2017-07-07T09:47:03.390Z,64960
2017-07-07T09:48:03.439Z,52480
2017-07-07T09:49:03.415Z,60576
2017-07-07T09:50:03.370Z,46592
2017-07-07T09:51:03.363Z,54720
2017-07-07T09:52:03.365Z,58784
2017-07-07T09:53:03.356Z,60000
2017-07-07T09:54:03.340Z,72608
2017-07-07T09:55:03.331Z,72736
2017-07-07T09:56:03.342Z,69568
2017-07-07T09:57:03.376Z,72128
2017-07-07T09:58:03.017Z,65952
2017-07-07T09:59:03.316Z,52320
2017-07-07T10:00:03.304Z,73248
2017-07-07T10:01:03.299Z,79008
2017-07-07T10:02:03.000Z,38592
2017-07-07T10:03:03.287Z,73952
2017-07-07T10:04:03.293Z,34944
2017-07-07T10:05:03.332Z,45536
2017-07-07T10:06:03.278Z,23616
2017-07-07T10:07:03.273Z,25184
2017-07-07T10:08:03.326Z,66400
2017-07-07T10:09:03.272Z,21184
2017-07-07T10:10:02.949Z,12096
2017-07-07T10:11:03.267Z,15564
2017-07-07T10:12:03.464Z,53664
2017-07-07T10:13:03.247Z,23584
2017-07-07T10:14:03.238Z,30080
2017-07-07T10:15:03.279Z,23648
2017-07-07T10:16:03.234Z,28736
2017-07-07T10:17:03.208Z,25376
2017-07-07T10:18:03.202Z,66848
2017-07-07T10:19:03.200Z,77152
2017-07-07T10:20:03.181Z,29408
2017-07-07T10:21:03.179Z,18016
2017-07-07T10:22:03.330Z,68992
2017-07-07T10:23:03.154Z,79136
2017-07-07T10:24:03.155Z,76512
2017-07-07T10:25:02.848Z,29216
2017-07-07T10:26:02.522Z,19104
2017-07-07T10:27:03.131Z,15412
2017-07-07T10:28:03.235Z,80128
2017-07-07T10:29:03.119Z,89344
2017-07-07T10:30:03.122Z,69888
2017-07-07T10:31:03.161Z,68224
2017-07-07T10:32:03.108Z,31264
2017-07-07T10:33:03.089Z,51616
2017-07-07T10:34:03.187Z,31296
2017-07-07T10:35:02.514Z,50240
2017-07-07T10:36:02.505Z,18048
2017-07-07T10:37:03.070Z,59552
2017-07-07T10:38:02.752Z,32928
2017-07-07T10:39:03.112Z,24608
2017-07-07T10:40:03.042Z,17952
2017-07-07T10:41:03.037Z,19680
2017-07-07T10:42:03.022Z,19744
2017-07-07T10:43:03.035Z,22496
2017-07-07T10:44:03.207Z,27328
2017-07-07T10:45:03.001Z,23552
2017-07-07T10:46:02.997Z,31328
2017-07-07T10:47:03.037Z,21024
2017-07-07T10:48:02.989Z,18592
2017-07-07T10:49:02.968Z,41856
2017-07-07T10:50:02.970Z,39744
2017-07-07T10:51:02.959Z,55200
2017-07-07T10:52:02.943Z,62560
2017-07-07T10:53:02.977Z,50592
2017-07-07T10:54:02.916Z,53184
2017-07-07T10:55:02.913Z,58464
2017-07-07T10:56:02.902Z,65792
2017-07-07T10:57:02.898Z,71168
2017-07-07T10:58:02.882Z,64768
2017-07-07T10:59:02.893Z,54048
2017-07-07T11:00:02.857Z,74912
2017-07-07T11:01:02.913Z,78112
2017-07-07T11:02:02.908Z,75968
2017-07-07T11:03:02.848Z,55168
2017-07-07T11:04:02.897Z,78880
2017-07-07T11:05:02.834Z,27744
2017-07-07T11:06:02.823Z,23520
2017-07-07T11:07:02.814Z,31136
2017-07-07T11:08:02.804Z,70528
2017-07-07T11:09:02.803Z,56000
2017-07-07T11:10:02.785Z,36672
2017-07-07T11:11:02.479Z,23008
2017-07-07T11:12:02.781Z,22432
2017-07-07T11:13:02.820Z,22336
2017-07-07T11:14:02.448Z,21248
2017-07-07T11:15:02.751Z,26112
2017-07-07T11:16:02.757Z,27008
2017-07-07T11:17:02.738Z,36000
2017-07-07T11:18:02.727Z,52608
2017-07-07T11:19:02.409Z,46592
2017-07-07T11:20:02.712Z,45664
2017-07-07T11:21:02.709Z,32288
2017-07-07T11:22:02.695Z,23264
2017-07-07T11:23:02.779Z,21024
2017-07-07T11:24:02.675Z,25024
2017-07-07T11:25:02.666Z,25184
2017-07-07T11:26:02.968Z,23456
2017-07-07T11:27:02.355Z,21632
2017-07-07T11:28:02.012Z,20544
2017-07-07T11:29:02.634Z,20288
2017-07-07T11:30:02.619Z,19392
2017-07-07T11:31:02.612Z,24320
2017-07-07T11:32:02.607Z,24736
2017-07-07T11:33:02.601Z,21216
2017-07-07T11:34:02.588Z,22560
2017-07-07T11:35:02.565Z,23904
2017-07-07T11:36:02.556Z,23584
2017-07-07T11:37:02.801Z,23840
2017-07-07T11:38:02.547Z,20384
2017-07-07T11:39:02.528Z,20512
2017-07-07T11:40:02.521Z,23456
2017-07-07T11:41:02.526Z,21696
2017-07-07T11:42:02.495Z,16368
2017-07-07T11:43:02.486Z,12820
2017-07-07T11:44:02.160Z,15648
2017-07-07T11:45:02.500Z,15628
2017-07-07T11:46:02.462Z,18880
2017-07-07T11:47:02.457Z,22144
2017-07-07T11:48:02.445Z,19488
2017-07-07T11:49:02.426Z,16632
2017-07-07T11:50:02.399Z,15564
2017-07-07T11:51:02.403Z,14644
2017-07-07T11:52:02.389Z,16232
2017-07-07T11:53:02.069Z,15912
2017-07-07T11:54:02.372Z,14608
2017-07-07T11:55:02.363Z,15500
2017-07-07T11:56:02.368Z,14320
2017-07-07T11:57:02.017Z,13700
2017-07-07T11:58:02.012Z,15216
2017-07-07T11:59:02.458Z,15332
2017-07-07T12:00:02.297Z,14188
2017-07-07T12:01:02.298Z,14376
2017-07-07T12:02:02.320Z,12184
2017-07-07T12:03:01.946Z,10572
2017-07-07T12:04:02.242Z,11280
2017-07-07T12:05:02.237Z,11840
2017-07-07T12:06:02.222Z,11412
2017-07-07T12:07:02.220Z,12784
2017-07-07T12:08:02.222Z,16768
2017-07-07T12:09:02.184Z,15536
2017-07-07T12:10:02.169Z,15224
2017-07-07T12:11:02.154Z,15592
2017-07-07T12:12:02.158Z,15340
2017-07-07T12:13:02.134Z,11820
2017-07-07T12:14:02.117Z,9324
2017-07-07T12:15:02.114Z,7860
2017-07-07T12:16:02.094Z,7488
2017-07-07T12:17:02.083Z,7648
2017-07-07T12:18:01.758Z,8196
2017-07-07T12:19:02.065Z,13284
2017-07-07T12:20:02.042Z,13924
2017-07-07T12:21:01.717Z,14680
2017-07-07T12:22:01.713Z,14736
2017-07-07T12:23:01.991Z,15572
2017-07-07T12:24:01.992Z,16552
2017-07-07T12:25:01.671Z,17204
2017-07-07T12:26:02.018Z,17016
2017-07-07T12:27:01.637Z,19008
2017-07-07T12:28:02.190Z,15460
2017-07-07T12:29:02.069Z,13928
2017-07-07T12:30:01.949Z,15976
2017-07-07T12:31:01.890Z,16852
2017-07-07T12:32:02.135Z,14824
2017-07-07T12:33:01.866Z,18400
2017-07-07T12:34:01.906Z,18944
2017-07-07T12:35:01.841Z,17548
2017-07-07T12:36:01.825Z,14608
2017-07-07T12:37:01.818Z,16172
2017-07-07T12:38:01.810Z,15304
2017-07-07T12:39:01.787Z,15632
2017-07-07T12:40:01.513Z,15568
2017-07-07T12:41:01.759Z,15464
2017-07-07T12:42:01.799Z,15040
2017-07-07T12:43:01.442Z,14032
2017-07-07T12:44:01.735Z,12672
2017-07-07T12:45:01.709Z,15196
2017-07-07T12:46:01.752Z,15964
2017-07-07T12:47:01.697Z,15712
2017-07-07T12:48:01.827Z,16016
2017-07-07T12:49:01.362Z,15888
2017-07-07T12:50:01.346Z,16620
2017-07-07T12:51:01.737Z,18304
2017-07-07T12:52:01.642Z,17172
2017-07-07T12:53:01.618Z,16108
2017-07-07T12:54:01.616Z,14860
2017-07-07T12:55:01.585Z,13696
2017-07-07T12:56:01.574Z,14824
2017-07-07T12:57:01.631Z,15828
2017-07-07T12:58:01.567Z,14668
2017-07-07T12:59:01.546Z,13844
2017-07-07T13:00:01.831Z,14536
2017-07-07T13:01:01.515Z,14816
2017-07-07T13:02:01.501Z,14164
2017-07-07T13:03:01.553Z,15232
2017-07-07T13:04:01.536Z,16516
2017-07-07T13:05:01.525Z,15952
2017-07-07T13:06:01.460Z,15096
2017-07-07T13:07:01.445Z,14972
2017-07-07T13:08:01.439Z,14608
2017-07-07T13:09:01.417Z,13956
2017-07-07T13:10:01.455Z,13360
2017-07-07T13:11:01.405Z,13048
2017-07-07T13:12:01.381Z,13092
2017-07-07T13:13:01.364Z,13272
2017-07-07T13:14:01.148Z,15212
2017-07-07T13:15:01.038Z,15728
2017-07-07T13:16:01.329Z,16080
2017-07-07T13:17:01.314Z,16460
2017-07-07T13:18:01.362Z,13612
2017-07-07T13:19:01.300Z,11920
2017-07-07T13:20:01.333Z,12708
2017-07-07T13:21:01.273Z,14968
2017-07-07T13:22:01.263Z,16824
2017-07-07T13:23:01.238Z,17824
2017-07-07T13:24:00.931Z,15188
2017-07-07T13:25:01.222Z,12308
2017-07-07T13:26:01.283Z,11920